Aeroporto :
LOGIN :

Iscrizione | Disclaimer

   EN    FR    IT 

 










Sommario :    VFR   VFR Marginale   IFR   IFR Intensivo   IFR Molto Intensivo
Visibilità : 
Base nubi : 
>= 8 km
>= 3000ft
5 / 8 km
1000 / 3000 ft
1500m / 5 km
500 / 1000 ft
800 / 1500m
200 / 500 ft
< 800m
< 200 ft
Simboli :   Temporali  Nebbia  Neve Forte  Precipitazioni Forti  Vento > 20 kt
SIGMETs :   Varie  Temporali  Ghiacco  Turbolenza  Onda orograficha  Ceneri Vulcaniche







- Altitudine del aeroporto : 245 ft
- Codice IATA : BIQ
- Carte del aeroporto


LFBZ - Biarritz

ULTIMO METAR :
  • 151800Z AUTO 35008KT 320V020 CAVOK 23/17 Q1017 NOSIG

METARs OBSOLETI :
  • 151730Z AUTO 35009KT 320V020 CAVOK 23/17 Q1017 NOSIG
  • 151700Z AUTO 35009KT 310V020 CAVOK 23/17 Q1017 NOSIG
  • 151630Z AUTO 33009KT 300V360 9999 4600 NSC 24/17 Q1017 NOSIG
  • 151600Z AUTO 34011KT 290V010 9999 4600 NSC 23/16 Q1017 NOSIG
  • 151530Z AUTO 33013KT 310V010 CAVOK 24/16 Q1017 NOSIG

TAF TAF LFBZ
Valido dal 15 a 18 ore il 16 a 18 ore UTC


151700Z 1518/1618 32010KT CAVOK
TEMPO 1601/1610 VRB02KT BKN013
Nessun NOTAM noto per questo aeroporto.



MetMap, La meteo Aeronautica in un colpo d'occhio ! - Copyright ORBIFLY Dicembre 2007 - Disclaimer

ORBIFLY MET'MAP TEAM :

Programmazione e sviluppo : Alexandra Zaïnal
Concezione e sviluppo : Baudouin d'Aumeries
Co-Programmazione e sviluppo : Marc-Olivier Méhu
Supporto tecnico e logistico : Manuel Goepfert
Aiuto per la traduzione : Arnaldo La Scala

Contatto : metmap@orbifly.com




FONTI E CREDITI :

   NOAA